sensor_id;sensor_type;location;lat;lon;timestamp;temperature;humidity
20658;DHT22;10488;50.846;4.078;2024-01-27T00:02:19;3.20;99.90
20658;DHT22;10488;50.846;4.078;2024-01-27T00:04:45;3.20;99.90
20658;DHT22;10488;50.846;4.078;2024-01-27T00:07:11;3.20;99.90
20658;DHT22;10488;50.846;4.078;2024-01-27T00:09:36;3.10;99.90
20658;DHT22;10488;50.846;4.078;2024-01-27T00:12:02;3.10;99.90
20658;DHT22;10488;50.846;4.078;2024-01-27T00:14:28;3.10;99.90
20658;DHT22;10488;50.846;4.078;2024-01-27T00:16:53;3.10;99.90
20658;DHT22;10488;50.846;4.078;2024-01-27T00:19:19;3.10;99.90
20658;DHT22;10488;50.846;4.078;2024-01-27T00:21:44;3.10;99.90
20658;DHT22;10488;50.846;4.078;2024-01-27T00:24:10;3.10;99.90
20658;DHT22;10488;50.846;4.078;2024-01-27T00:26:36;3.00;99.90
20658;DHT22;10488;50.846;4.078;2024-01-27T00:29:02;3.00;99.90
20658;DHT22;10488;50.846;4.078;2024-01-27T00:31:27;3.00;99.90
20658;DHT22;10488;50.846;4.078;2024-01-27T00:33:53;3.10;99.90
20658;DHT22;10488;50.846;4.078;2024-01-27T00:36:19;3.00;99.90
20658;DHT22;10488;50.846;4.078;2024-01-27T00:38:45;3.00;99.90
20658;DHT22;10488;50.846;4.078;2024-01-27T00:41:16;2.90;99.90
20658;DHT22;10488;50.846;4.078;2024-01-27T00:43:42;2.90;99.90
20658;DHT22;10488;50.846;4.078;2024-01-27T00:46:08;2.90;99.90
20658;DHT22;10488;50.846;4.078;2024-01-27T00:48:33;2.90;99.90
20658;DHT22;10488;50.846;4.078;2024-01-27T00:50:59;2.80;99.90
20658;DHT22;10488;50.846;4.078;2024-01-27T00:53:25;2.80;99.90
20658;DHT22;10488;50.846;4.078;2024-01-27T00:55:50;2.80;99.90
20658;DHT22;10488;50.846;4.078;2024-01-27T00:58:16;2.80;99.90
20658;DHT22;10488;50.846;4.078;2024-01-27T01:00:42;2.80;99.90
20658;DHT22;10488;50.846;4.078;2024-01-27T01:03:07;2.70;99.90
20658;DHT22;10488;50.846;4.078;2024-01-27T01:05:33;2.70;99.90
20658;DHT22;10488;50.846;4.078;2024-01-27T01:07:58;2.70;99.90
20658;DHT22;10488;50.846;4.078;2024-01-27T01:10:24;2.70;99.90
20658;DHT22;10488;50.846;4.078;2024-01-27T01:12:50;2.80;99.90
20658;DHT22;10488;50.846;4.078;2024-01-27T01:15:16;2.80;99.90
20658;DHT22;10488;50.846;4.078;2024-01-27T01:17:41;2.70;99.90
20658;DHT22;10488;50.846;4.078;2024-01-27T01:20:07;2.60;99.90
20658;DHT22;10488;50.846;4.078;2024-01-27T01:22:33;2.70;99.90
20658;DHT22;10488;50.846;4.078;2024-01-27T01:24:59;2.70;99.90
20658;DHT22;10488;50.846;4.078;2024-01-27T01:27:24;2.70;99.90
20658;DHT22;10488;50.846;4.078;2024-01-27T01:29:50;2.70;99.90
20658;DHT22;10488;50.846;4.078;2024-01-27T01:32:16;2.60;99.90
20658;DHT22;10488;50.846;4.078;2024-01-27T01:34:41;2.70;99.90
20658;DHT22;10488;50.846;4.078;2024-01-27T01:37:07;2.60;99.90
20658;DHT22;10488;50.846;4.078;2024-01-27T01:39:32;2.70;99.90
20658;DHT22;10488;50.846;4.078;2024-01-27T01:41:58;2.70;99.90
20658;DHT22;10488;50.846;4.078;2024-01-27T01:44:30;2.60;99.90
20658;DHT22;10488;50.846;4.078;2024-01-27T01:46:57;2.60;99.90
20658;DHT22;10488;50.846;4.078;2024-01-27T01:49:23;2.50;99.90
20658;DHT22;10488;50.846;4.078;2024-01-27T01:51:49;2.50;99.90
20658;DHT22;10488;50.846;4.078;2024-01-27T01:54:15;2.60;99.90
20658;DHT22;10488;50.846;4.078;2024-01-27T01:56:42;2.60;99.90
20658;DHT22;10488;50.846;4.078;2024-01-27T01:59:08;2.60;99.90
20658;DHT22;10488;50.846;4.078;2024-01-27T02:01:33;2.60;99.90
20658;DHT22;10488;50.846;4.078;2024-01-27T02:03:59;2.60;99.90
20658;DHT22;10488;50.846;4.078;2024-01-27T02:06:25;2.60;99.90
20658;DHT22;10488;50.846;4.078;2024-01-27T02:08:51;2.60;99.90
20658;DHT22;10488;50.846;4.078;2024-01-27T02:11:17;2.60;99.90
20658;DHT22;10488;50.846;4.078;2024-01-27T02:13:43;2.50;99.90
20658;DHT22;10488;50.846;4.078;2024-01-27T02:16:09;2.50;99.90
20658;DHT22;10488;50.846;4.078;2024-01-27T02:18:35;2.50;99.90
20658;DHT22;10488;50.846;4.078;2024-01-27T02:21:00;2.50;99.90
20658;DHT22;10488;50.846;4.078;2024-01-27T02:23:26;2.50;99.90
20658;DHT22;10488;50.846;4.078;2024-01-27T02:25:52;2.50;99.90
20658;DHT22;10488;50.846;4.078;2024-01-27T02:28:17;2.50;99.90
20658;DHT22;10488;50.846;4.078;2024-01-27T02:30:43;2.50;99.90
20658;DHT22;10488;50.846;4.078;2024-01-27T02:33:09;2.50;99.90
20658;DHT22;10488;50.846;4.078;2024-01-27T02:35:34;2.50;99.90
20658;DHT22;10488;50.846;4.078;2024-01-27T02:38:00;2.50;99.90
20658;DHT22;10488;50.846;4.078;2024-01-27T02:40:26;2.40;99.90
20658;DHT22;10488;50.846;4.078;2024-01-27T02:42:52;2.40;99.90
20658;DHT22;10488;50.846;4.078;2024-01-27T02:45:17;2.40;99.90
20658;DHT22;10488;50.846;4.078;2024-01-27T02:47:43;2.40;99.90
20658;DHT22;10488;50.846;4.078;2024-01-27T02:50:09;2.40;99.90
20658;DHT22;10488;50.846;4.078;2024-01-27T02:52:35;2.40;99.90
20658;DHT22;10488;50.846;4.078;2024-01-27T02:55:01;2.40;99.90
20658;DHT22;10488;50.846;4.078;2024-01-27T02:57:27;2.40;99.90
20658;DHT22;10488;50.846;4.078;2024-01-27T02:59:52;2.40;99.90
20658;DHT22;10488;50.846;4.078;2024-01-27T03:02:18;2.50;99.90
20658;DHT22;10488;50.846;4.078;2024-01-27T03:04:43;2.40;99.90
20658;DHT22;10488;50.846;4.078;2024-01-27T03:07:09;2.40;99.90
20658;DHT22;10488;50.846;4.078;2024-01-27T03:09:35;2.40;99.90
20658;DHT22;10488;50.846;4.078;2024-01-27T03:12:01;2.40;99.90
20658;DHT22;10488;50.846;4.078;2024-01-27T03:14:27;2.40;99.90
20658;DHT22;10488;50.846;4.078;2024-01-27T03:16:53;2.40;99.90
20658;DHT22;10488;50.846;4.078;2024-01-27T03:19:19;2.40;99.90
20658;DHT22;10488;50.846;4.078;2024-01-27T03:21:45;2.40;99.90
20658;DHT22;10488;50.846;4.078;2024-01-27T03:24:11;2.40;99.90
20658;DHT22;10488;50.846;4.078;2024-01-27T03:26:36;2.30;99.90
20658;DHT22;10488;50.846;4.078;2024-01-27T03:29:02;2.20;99.90
20658;DHT22;10488;50.846;4.078;2024-01-27T03:31:31;2.20;99.90
20658;DHT22;10488;50.846;4.078;2024-01-27T03:34:01;2.20;99.90
20658;DHT22;10488;50.846;4.078;2024-01-27T03:36:27;2.20;99.90
20658;DHT22;10488;50.846;4.078;2024-01-27T03:38:54;2.20;99.90
20658;DHT22;10488;50.846;4.078;2024-01-27T03:41:19;2.20;99.90
20658;DHT22;10488;50.846;4.078;2024-01-27T03:43:45;2.10;99.90
20658;DHT22;10488;50.846;4.078;2024-01-27T03:46:11;2.20;99.90
20658;DHT22;10488;50.846;4.078;2024-01-27T03:48:36;2.20;99.90
20658;DHT22;10488;50.846;4.078;2024-01-27T03:51:02;2.20;99.90
20658;DHT22;10488;50.846;4.078;2024-01-27T03:53:28;2.20;99.90
20658;DHT22;10488;50.846;4.078;2024-01-27T03:55:53;2.20;99.90
20658;DHT22;10488;50.846;4.078;2024-01-27T03:58:19;2.10;99.90
20658;DHT22;10488;50.846;4.078;2024-01-27T04:00:45;2.20;99.90
20658;DHT22;10488;50.846;4.078;2024-01-27T04:03:11;2.10;99.90
20658;DHT22;10488;50.846;4.078;2024-01-27T04:05:37;2.10;99.90
20658;DHT22;10488;50.846;4.078;2024-01-27T04:08:04;2.10;99.90
20658;DHT22;10488;50.846;4.078;2024-01-27T04:10:30;2.10;99.90
20658;DHT22;10488;50.846;4.078;2024-01-27T04:12:56;2.10;99.90
20658;DHT22;10488;50.846;4.078;2024-01-27T04:15:21;2.00;99.90
20658;DHT22;10488;50.846;4.078;2024-01-27T04:17:47;2.00;99.90
20658;DHT22;10488;50.846;4.078;2024-01-27T04:20:12;2.00;99.90
20658;DHT22;10488;50.846;4.078;2024-01-27T04:22:38;2.00;99.90
20658;DHT22;10488;50.846;4.078;2024-01-27T04:25:05;2.00;99.90
20658;DHT22;10488;50.846;4.078;2024-01-27T04:27:31;2.00;99.90
20658;DHT22;10488;50.846;4.078;2024-01-27T04:29:57;2.00;99.90
20658;DHT22;10488;50.846;4.078;2024-01-27T04:32:23;2.00;99.90
20658;DHT22;10488;50.846;4.078;2024-01-27T04:34:49;2.00;99.90
20658;DHT22;10488;50.846;4.078;2024-01-27T04:37:15;1.90;99.90
20658;DHT22;10488;50.846;4.078;2024-01-27T04:39:40;2.00;99.90
20658;DHT22;10488;50.846;4.078;2024-01-27T04:42:06;1.90;99.90
20658;DHT22;10488;50.846;4.078;2024-01-27T04:44:32;1.90;99.90
20658;DHT22;10488;50.846;4.078;2024-01-27T04:46:58;1.90;99.90
20658;DHT22;10488;50.846;4.078;2024-01-27T04:49:24;1.90;99.90
20658;DHT22;10488;50.846;4.078;2024-01-27T04:51:49;1.90;99.90
20658;DHT22;10488;50.846;4.078;2024-01-27T04:54:15;1.80;99.90
20658;DHT22;10488;50.846;4.078;2024-01-27T04:56:41;1.90;99.90
20658;DHT22;10488;50.846;4.078;2024-01-27T04:59:07;1.80;99.90
20658;DHT22;10488;50.846;4.078;2024-01-27T05:01:32;1.80;99.90
20658;DHT22;10488;50.846;4.078;2024-01-27T05:03:58;1.80;99.90
20658;DHT22;10488;50.846;4.078;2024-01-27T05:06:24;1.80;99.90
20658;DHT22;10488;50.846;4.078;2024-01-27T05:08:50;1.80;99.90
20658;DHT22;10488;50.846;4.078;2024-01-27T05:11:29;1.80;99.90
20658;DHT22;10488;50.846;4.078;2024-01-27T05:13:56;1.80;99.90
20658;DHT22;10488;50.846;4.078;2024-01-27T05:16:22;1.80;99.90
20658;DHT22;10488;50.846;4.078;2024-01-27T05:18:47;1.80;99.90
20658;DHT22;10488;50.846;4.078;2024-01-27T05:21:14;1.70;99.90
20658;DHT22;10488;50.846;4.078;2024-01-27T05:23:39;1.80;99.90
20658;DHT22;10488;50.846;4.078;2024-01-27T05:26:06;1.80;99.90
20658;DHT22;10488;50.846;4.078;2024-01-27T05:28:31;1.80;99.90
20658;DHT22;10488;50.846;4.078;2024-01-27T05:30:57;1.80;99.90
20658;DHT22;10488;50.846;4.078;2024-01-27T05:33:23;1.80;99.90
20658;DHT22;10488;50.846;4.078;2024-01-27T05:35:49;1.80;99.90
20658;DHT22;10488;50.846;4.078;2024-01-27T05:38:15;1.80;99.90
20658;DHT22;10488;50.846;4.078;2024-01-27T05:40:41;1.70;99.90
20658;DHT22;10488;50.846;4.078;2024-01-27T05:43:07;1.70;99.90
20658;DHT22;10488;50.846;4.078;2024-01-27T05:45:33;1.70;99.90
20658;DHT22;10488;50.846;4.078;2024-01-27T05:47:58;1.70;99.90
20658;DHT22;10488;50.846;4.078;2024-01-27T05:50:24;1.60;99.90
20658;DHT22;10488;50.846;4.078;2024-01-27T05:52:49;1.60;99.90
20658;DHT22;10488;50.846;4.078;2024-01-27T05:55:16;1.60;99.90
20658;DHT22;10488;50.846;4.078;2024-01-27T05:57:42;1.70;99.90
20658;DHT22;10488;50.846;4.078;2024-01-27T06:00:08;1.60;99.90
20658;DHT22;10488;50.846;4.078;2024-01-27T06:02:35;1.60;99.90
20658;DHT22;10488;50.846;4.078;2024-01-27T06:05:01;1.70;99.90
20658;DHT22;10488;50.846;4.078;2024-01-27T06:07:27;1.70;99.90
20658;DHT22;10488;50.846;4.078;2024-01-27T06:09:53;1.70;99.90
20658;DHT22;10488;50.846;4.078;2024-01-27T06:12:19;1.70;99.90
20658;DHT22;10488;50.846;4.078;2024-01-27T06:14:45;1.70;99.90
20658;DHT22;10488;50.846;4.078;2024-01-27T06:17:10;1.70;99.90
20658;DHT22;10488;50.846;4.078;2024-01-27T06:19:37;1.60;99.90
20658;DHT22;10488;50.846;4.078;2024-01-27T06:22:02;1.70;99.90
20658;DHT22;10488;50.846;4.078;2024-01-27T06:24:28;1.70;99.90
20658;DHT22;10488;50.846;4.078;2024-01-27T06:26:54;1.70;99.90
20658;DHT22;10488;50.846;4.078;2024-01-27T06:29:19;1.70;99.90
20658;DHT22;10488;50.846;4.078;2024-01-27T06:31:45;1.70;99.90
20658;DHT22;10488;50.846;4.078;2024-01-27T06:34:10;1.60;99.90
20658;DHT22;10488;50.846;4.078;2024-01-27T06:36:36;1.60;99.90
20658;DHT22;10488;50.846;4.078;2024-01-27T06:39:02;1.70;99.90
20658;DHT22;10488;50.846;4.078;2024-01-27T06:41:27;1.60;99.90
20658;DHT22;10488;50.846;4.078;2024-01-27T06:43:53;1.70;99.90
20658;DHT22;10488;50.846;4.078;2024-01-27T06:46:19;1.70;99.90
20658;DHT22;10488;50.846;4.078;2024-01-27T06:48:44;1.70;99.90
20658;DHT22;10488;50.846;4.078;2024-01-27T06:51:10;1.70;99.90
20658;DHT22;10488;50.846;4.078;2024-01-27T06:53:36;1.70;99.90
20658;DHT22;10488;50.846;4.078;2024-01-27T06:56:01;1.60;99.90
20658;DHT22;10488;50.846;4.078;2024-01-27T06:58:27;1.60;99.90
20658;DHT22;10488;50.846;4.078;2024-01-27T07:00:53;1.60;99.90
20658;DHT22;10488;50.846;4.078;2024-01-27T07:03:19;1.70;99.90
20658;DHT22;10488;50.846;4.078;2024-01-27T07:05:45;1.70;99.90
20658;DHT22;10488;50.846;4.078;2024-01-27T07:08:11;1.70;99.90
20658;DHT22;10488;50.846;4.078;2024-01-27T07:10:36;1.70;99.90
20658;DHT22;10488;50.846;4.078;2024-01-27T07:13:02;1.70;99.90
20658;DHT22;10488;50.846;4.078;2024-01-27T07:15:28;1.70;99.90
20658;DHT22;10488;50.846;4.078;2024-01-27T07:17:56;1.70;99.90
20658;DHT22;10488;50.846;4.078;2024-01-27T07:20:22;1.70;99.90
20658;DHT22;10488;50.846;4.078;2024-01-27T07:22:49;1.70;99.90
20658;DHT22;10488;50.846;4.078;2024-01-27T07:25:15;1.70;99.90
20658;DHT22;10488;50.846;4.078;2024-01-27T07:27:41;1.60;99.90
20658;DHT22;10488;50.846;4.078;2024-01-27T07:30:07;1.70;99.90
20658;DHT22;10488;50.846;4.078;2024-01-27T07:32:34;1.70;99.90
20658;DHT22;10488;50.846;4.078;2024-01-27T07:35:02;1.60;99.90
20658;DHT22;10488;50.846;4.078;2024-01-27T07:37:28;1.60;99.90
20658;DHT22;10488;50.846;4.078;2024-01-27T07:39:53;1.60;99.90
20658;DHT22;10488;50.846;4.078;2024-01-27T07:42:19;1.60;99.90
20658;DHT22;10488;50.846;4.078;2024-01-27T07:44:45;1.60;99.90
20658;DHT22;10488;50.846;4.078;2024-01-27T07:47:10;1.60;99.90
20658;DHT22;10488;50.846;4.078;2024-01-27T07:49:36;1.60;99.90
20658;DHT22;10488;50.846;4.078;2024-01-27T07:52:01;1.70;99.90
20658;DHT22;10488;50.846;4.078;2024-01-27T07:54:27;1.70;99.90
20658;DHT22;10488;50.846;4.078;2024-01-27T07:56:54;1.70;99.90
20658;DHT22;10488;50.846;4.078;2024-01-27T07:59:20;1.70;99.90
20658;DHT22;10488;50.846;4.078;2024-01-27T08:01:46;1.70;99.90
20658;DHT22;10488;50.846;4.078;2024-01-27T08:04:11;1.70;99.90
20658;DHT22;10488;50.846;4.078;2024-01-27T08:06:48;1.80;99.90
20658;DHT22;10488;50.846;4.078;2024-01-27T08:09:14;1.80;99.90
20658;DHT22;10488;50.846;4.078;2024-01-27T08:11:40;1.80;99.90
20658;DHT22;10488;50.846;4.078;2024-01-27T08:14:05;1.90;99.90
20658;DHT22;10488;50.846;4.078;2024-01-27T08:16:31;1.90;99.90
20658;DHT22;10488;50.846;4.078;2024-01-27T08:18:57;1.90;99.90
20658;DHT22;10488;50.846;4.078;2024-01-27T08:21:22;2.00;99.90
20658;DHT22;10488;50.846;4.078;2024-01-27T08:23:48;2.10;99.90
20658;DHT22;10488;50.846;4.078;2024-01-27T08:26:14;2.10;99.90
20658;DHT22;10488;50.846;4.078;2024-01-27T08:28:41;2.10;99.90
20658;DHT22;10488;50.846;4.078;2024-01-27T08:31:06;2.20;99.90
20658;DHT22;10488;50.846;4.078;2024-01-27T08:33:32;2.30;99.90
20658;DHT22;10488;50.846;4.078;2024-01-27T08:35:58;2.30;99.90
20658;DHT22;10488;50.846;4.078;2024-01-27T08:38:23;2.40;99.90
20658;DHT22;10488;50.846;4.078;2024-01-27T08:40:49;2.40;99.90
20658;DHT22;10488;50.846;4.078;2024-01-27T08:43:15;2.50;99.90
20658;DHT22;10488;50.846;4.078;2024-01-27T08:45:41;2.60;99.90
20658;DHT22;10488;50.846;4.078;2024-01-27T08:48:07;2.60;99.90
20658;DHT22;10488;50.846;4.078;2024-01-27T08:50:33;2.60;99.90
20658;DHT22;10488;50.846;4.078;2024-01-27T08:52:58;2.70;99.90
20658;DHT22;10488;50.846;4.078;2024-01-27T08:55:24;2.80;99.90
20658;DHT22;10488;50.846;4.078;2024-01-27T08:57:50;2.80;99.90
20658;DHT22;10488;50.846;4.078;2024-01-27T09:00:16;2.80;99.90
20658;DHT22;10488;50.846;4.078;2024-01-27T09:02:45;2.90;99.90
20658;DHT22;10488;50.846;4.078;2024-01-27T09:05:11;2.90;99.90
20658;DHT22;10488;50.846;4.078;2024-01-27T09:07:37;3.00;99.90
20658;DHT22;10488;50.846;4.078;2024-01-27T09:10:03;3.10;99.90
20658;DHT22;10488;50.846;4.078;2024-01-27T09:12:28;3.20;99.90
20658;DHT22;10488;50.846;4.078;2024-01-27T09:14:54;3.20;99.90
20658;DHT22;10488;50.846;4.078;2024-01-27T09:17:20;3.20;99.90
20658;DHT22;10488;50.846;4.078;2024-01-27T09:19:46;3.30;99.90
20658;DHT22;10488;50.846;4.078;2024-01-27T09:22:12;3.30;99.90
20658;DHT22;10488;50.846;4.078;2024-01-27T09:24:40;3.50;99.90
20658;DHT22;10488;50.846;4.078;2024-01-27T09:27:06;3.50;99.90
20658;DHT22;10488;50.846;4.078;2024-01-27T09:29:31;3.60;99.90
20658;DHT22;10488;50.846;4.078;2024-01-27T09:31:57;3.80;99.90
20658;DHT22;10488;50.846;4.078;2024-01-27T09:34:23;4.00;99.90
20658;DHT22;10488;50.846;4.078;2024-01-27T09:36:49;4.10;99.90
20658;DHT22;10488;50.846;4.078;2024-01-27T09:39:15;3.90;99.90
20658;DHT22;10488;50.846;4.078;2024-01-27T09:41:41;3.80;99.90
20658;DHT22;10488;50.846;4.078;2024-01-27T09:44:07;4.00;99.90
20658;DHT22;10488;50.846;4.078;2024-01-27T09:46:33;4.10;99.90
20658;DHT22;10488;50.846;4.078;2024-01-27T09:48:59;4.20;99.90
20658;DHT22;10488;50.846;4.078;2024-01-27T09:51:26;4.20;99.90
20658;DHT22;10488;50.846;4.078;2024-01-27T09:53:52;4.20;99.90
20658;DHT22;10488;50.846;4.078;2024-01-27T09:56:18;4.20;99.90
20658;DHT22;10488;50.846;4.078;2024-01-27T09:58:45;4.40;99.90
20658;DHT22;10488;50.846;4.078;2024-01-27T10:01:11;4.50;99.90
20658;DHT22;10488;50.846;4.078;2024-01-27T10:03:41;4.60;99.90
20658;DHT22;10488;50.846;4.078;2024-01-27T10:06:10;4.60;99.90
20658;DHT22;10488;50.846;4.078;2024-01-27T10:08:36;4.80;99.90
20658;DHT22;10488;50.846;4.078;2024-01-27T10:11:09;5.10;99.90
20658;DHT22;10488;50.846;4.078;2024-01-27T10:13:36;5.30;99.90
20658;DHT22;10488;50.846;4.078;2024-01-27T10:16:05;5.40;99.90
20658;DHT22;10488;50.846;4.078;2024-01-27T10:18:32;5.40;99.90
20658;DHT22;10488;50.846;4.078;2024-01-27T10:20:57;5.30;99.90
20658;DHT22;10488;50.846;4.078;2024-01-27T10:23:24;5.40;99.90
20658;DHT22;10488;50.846;4.078;2024-01-27T10:25:50;5.40;99.90
20658;DHT22;10488;50.846;4.078;2024-01-27T10:28:16;5.70;99.90
20658;DHT22;10488;50.846;4.078;2024-01-27T10:30:43;5.80;99.90
20658;DHT22;10488;50.846;4.078;2024-01-27T10:33:09;6.00;99.90
20658;DHT22;10488;50.846;4.078;2024-01-27T10:35:36;6.20;99.90
20658;DHT22;10488;50.846;4.078;2024-01-27T10:38:01;6.50;99.90
20658;DHT22;10488;50.846;4.078;2024-01-27T10:40:27;6.60;99.90
20658;DHT22;10488;50.846;4.078;2024-01-27T10:43:12;6.70;99.90
20658;DHT22;10488;50.846;4.078;2024-01-27T10:45:41;6.90;99.90
20658;DHT22;10488;50.846;4.078;2024-01-27T10:48:08;6.80;99.90
20658;DHT22;10488;50.846;4.078;2024-01-27T10:50:37;6.90;99.90
20658;DHT22;10488;50.846;4.078;2024-01-27T10:53:04;7.00;99.90
20658;DHT22;10488;50.846;4.078;2024-01-27T10:55:33;7.10;99.90
20658;DHT22;10488;50.846;4.078;2024-01-27T10:58:03;7.10;99.90
20658;DHT22;10488;50.846;4.078;2024-01-27T11:00:29;7.10;99.90
20658;DHT22;10488;50.846;4.078;2024-01-27T11:03:01;7.10;99.90
20658;DHT22;10488;50.846;4.078;2024-01-27T11:05:28;7.20;99.90
20658;DHT22;10488;50.846;4.078;2024-01-27T11:07:58;7.10;99.90
20658;DHT22;10488;50.846;4.078;2024-01-27T11:10:25;7.10;99.90
20658;DHT22;10488;50.846;4.078;2024-01-27T11:12:52;7.10;99.90
20658;DHT22;10488;50.846;4.078;2024-01-27T11:15:20;7.20;99.90
20658;DHT22;10488;50.846;4.078;2024-01-27T11:17:46;7.20;99.90
20658;DHT22;10488;50.846;4.078;2024-01-27T11:20:12;7.20;99.90
20658;DHT22;10488;50.846;4.078;2024-01-27T11:22:38;7.30;99.90
20658;DHT22;10488;50.846;4.078;2024-01-27T11:27:31;7.50;99.90
20658;DHT22;10488;50.846;4.078;2024-01-27T11:29:57;7.50;99.90
20658;DHT22;10488;50.846;4.078;2024-01-27T11:32:23;7.50;99.90
20658;DHT22;10488;50.846;4.078;2024-01-27T11:34:49;7.40;99.90
20658;DHT22;10488;50.846;4.078;2024-01-27T11:37:15;7.50;99.90
20658;DHT22;10488;50.846;4.078;2024-01-27T11:39:41;7.50;99.90
20658;DHT22;10488;50.846;4.078;2024-01-27T11:42:09;7.50;99.90
20658;DHT22;10488;50.846;4.078;2024-01-27T11:44:38;7.80;99.90
20658;DHT22;10488;50.846;4.078;2024-01-27T11:47:04;8.00;99.90
20658;DHT22;10488;50.846;4.078;2024-01-27T11:49:30;7.90;99.90
20658;DHT22;10488;50.846;4.078;2024-01-27T11:51:56;8.10;99.90
20658;DHT22;10488;50.846;4.078;2024-01-27T11:54:21;8.10;99.90
20658;DHT22;10488;50.846;4.078;2024-01-27T11:56:47;8.20;99.90
20658;DHT22;10488;50.846;4.078;2024-01-27T11:59:14;8.20;99.90
20658;DHT22;10488;50.846;4.078;2024-01-27T12:01:40;8.50;99.90
20658;DHT22;10488;50.846;4.078;2024-01-27T12:04:06;8.50;99.90
20658;DHT22;10488;50.846;4.078;2024-01-27T12:06:31;8.60;99.90
20658;DHT22;10488;50.846;4.078;2024-01-27T12:08:57;8.80;99.90
20658;DHT22;10488;50.846;4.078;2024-01-27T12:11:26;8.80;99.90
20658;DHT22;10488;50.846;4.078;2024-01-27T12:13:53;9.00;99.90
20658;DHT22;10488;50.846;4.078;2024-01-27T12:16:21;8.80;99.90
20658;DHT22;10488;50.846;4.078;2024-01-27T12:18:47;8.70;99.90
20658;DHT22;10488;50.846;4.078;2024-01-27T12:21:21;8.70;99.90
20658;DHT22;10488;50.846;4.078;2024-01-27T12:23:54;8.90;99.90
20658;DHT22;10488;50.846;4.078;2024-01-27T12:26:21;9.10;99.90
20658;DHT22;10488;50.846;4.078;2024-01-27T12:28:47;9.30;99.90
20658;DHT22;10488;50.846;4.078;2024-01-27T12:31:15;9.30;99.90
20658;DHT22;10488;50.846;4.078;2024-01-27T12:33:51;9.30;99.90
20658;DHT22;10488;50.846;4.078;2024-01-27T12:36:21;9.40;99.90
20658;DHT22;10488;50.846;4.078;2024-01-27T12:41:23;9.50;99.90
20658;DHT22;10488;50.846;4.078;2024-01-27T12:43:49;9.30;99.90
20658;DHT22;10488;50.846;4.078;2024-01-27T12:46:15;9.20;99.90
20658;DHT22;10488;50.846;4.078;2024-01-27T12:48:42;9.40;99.90
20658;DHT22;10488;50.846;4.078;2024-01-27T12:51:08;9.40;99.90
20658;DHT22;10488;50.846;4.078;2024-01-27T12:53:34;9.40;99.90
20658;DHT22;10488;50.846;4.078;2024-01-27T12:56:00;9.20;99.90
20658;DHT22;10488;50.846;4.078;2024-01-27T12:58:26;9.40;99.90
20658;DHT22;10488;50.846;4.078;2024-01-27T13:00:51;9.50;99.90
20658;DHT22;10488;50.846;4.078;2024-01-27T13:03:17;9.60;99.90
20658;DHT22;10488;50.846;4.078;2024-01-27T13:05:43;9.50;99.90
20658;DHT22;10488;50.846;4.078;2024-01-27T13:08:09;9.60;99.90
20658;DHT22;10488;50.846;4.078;2024-01-27T13:10:35;9.40;99.90
20658;DHT22;10488;50.846;4.078;2024-01-27T13:13:00;9.40;99.90
20658;DHT22;10488;50.846;4.078;2024-01-27T13:15:26;9.30;99.90
20658;DHT22;10488;50.846;4.078;2024-01-27T13:17:52;9.20;99.90
20658;DHT22;10488;50.846;4.078;2024-01-27T13:20:18;9.10;99.90
20658;DHT22;10488;50.846;4.078;2024-01-27T13:22:44;9.20;99.90
20658;DHT22;10488;50.846;4.078;2024-01-27T13:25:10;9.30;99.90
20658;DHT22;10488;50.846;4.078;2024-01-27T13:27:36;9.40;99.90
20658;DHT22;10488;50.846;4.078;2024-01-27T13:30:02;9.40;99.90
20658;DHT22;10488;50.846;4.078;2024-01-27T13:32:28;9.50;99.90
20658;DHT22;10488;50.846;4.078;2024-01-27T13:34:53;9.40;99.90
20658;DHT22;10488;50.846;4.078;2024-01-27T13:37:20;9.20;99.90
20658;DHT22;10488;50.846;4.078;2024-01-27T13:39:47;9.20;99.90
20658;DHT22;10488;50.846;4.078;2024-01-27T13:42:13;9.10;99.90
20658;DHT22;10488;50.846;4.078;2024-01-27T13:44:39;9.20;99.90
20658;DHT22;10488;50.846;4.078;2024-01-27T13:47:05;9.20;99.90
20658;DHT22;10488;50.846;4.078;2024-01-27T13:49:34;9.30;99.90
20658;DHT22;10488;50.846;4.078;2024-01-27T13:51:59;9.40;99.90
20658;DHT22;10488;50.846;4.078;2024-01-27T13:54:25;9.50;99.90
20658;DHT22;10488;50.846;4.078;2024-01-27T13:56:51;9.10;99.90
20658;DHT22;10488;50.846;4.078;2024-01-27T13:59:16;9.20;99.90
20658;DHT22;10488;50.846;4.078;2024-01-27T14:01:42;9.10;99.90
20658;DHT22;10488;50.846;4.078;2024-01-27T14:04:08;9.10;99.90
20658;DHT22;10488;50.846;4.078;2024-01-27T14:06:34;9.10;99.90
20658;DHT22;10488;50.846;4.078;2024-01-27T14:09:00;9.20;99.90
20658;DHT22;10488;50.846;4.078;2024-01-27T14:11:27;9.10;99.90
20658;DHT22;10488;50.846;4.078;2024-01-27T14:13:53;9.10;99.90
20658;DHT22;10488;50.846;4.078;2024-01-27T14:16:19;9.00;99.90
20658;DHT22;10488;50.846;4.078;2024-01-27T14:18:45;9.10;99.90
20658;DHT22;10488;50.846;4.078;2024-01-27T14:21:11;9.10;99.90
20658;DHT22;10488;50.846;4.078;2024-01-27T14:23:36;9.00;99.90
20658;DHT22;10488;50.846;4.078;2024-01-27T14:26:03;9.10;99.90
20658;DHT22;10488;50.846;4.078;2024-01-27T14:28:29;8.90;99.90
20658;DHT22;10488;50.846;4.078;2024-01-27T14:30:55;9.00;99.90
20658;DHT22;10488;50.846;4.078;2024-01-27T14:33:20;8.90;99.90
20658;DHT22;10488;50.846;4.078;2024-01-27T14:35:46;8.70;99.90
20658;DHT22;10488;50.846;4.078;2024-01-27T14:38:13;8.70;99.90
20658;DHT22;10488;50.846;4.078;2024-01-27T14:40:39;8.70;99.90
20658;DHT22;10488;50.846;4.078;2024-01-27T14:43:05;8.60;99.90
20658;DHT22;10488;50.846;4.078;2024-01-27T14:45:35;8.50;99.90
20658;DHT22;10488;50.846;4.078;2024-01-27T14:48:01;8.50;99.90
20658;DHT22;10488;50.846;4.078;2024-01-27T14:50:27;8.50;99.90
20658;DHT22;10488;50.846;4.078;2024-01-27T14:52:53;8.40;99.90
20658;DHT22;10488;50.846;4.078;2024-01-27T14:55:19;8.40;99.90
20658;DHT22;10488;50.846;4.078;2024-01-27T14:57:45;8.40;99.90
20658;DHT22;10488;50.846;4.078;2024-01-27T15:00:11;8.40;99.90
20658;DHT22;10488;50.846;4.078;2024-01-27T15:02:40;8.30;99.90
20658;DHT22;10488;50.846;4.078;2024-01-27T15:05:06;8.30;99.90
20658;DHT22;10488;50.846;4.078;2024-01-27T15:07:34;8.30;99.90
20658;DHT22;10488;50.846;4.078;2024-01-27T15:09:59;8.40;99.90
20658;DHT22;10488;50.846;4.078;2024-01-27T15:12:25;8.20;99.90
20658;DHT22;10488;50.846;4.078;2024-01-27T15:14:51;8.20;99.90
20658;DHT22;10488;50.846;4.078;2024-01-27T15:17:18;8.30;99.90
20658;DHT22;10488;50.846;4.078;2024-01-27T15:19:43;8.30;99.90
20658;DHT22;10488;50.846;4.078;2024-01-27T15:22:09;8.20;99.90
20658;DHT22;10488;50.846;4.078;2024-01-27T15:24:34;8.20;99.90
20658;DHT22;10488;50.846;4.078;2024-01-27T15:27:02;8.20;99.90
20658;DHT22;10488;50.846;4.078;2024-01-27T15:29:28;8.10;99.90
20658;DHT22;10488;50.846;4.078;2024-01-27T15:31:54;8.00;99.90
20658;DHT22;10488;50.846;4.078;2024-01-27T15:34:19;8.00;99.90
20658;DHT22;10488;50.846;4.078;2024-01-27T15:36:45;8.00;99.90
20658;DHT22;10488;50.846;4.078;2024-01-27T15:39:11;8.00;99.90
20658;DHT22;10488;50.846;4.078;2024-01-27T15:41:36;8.00;99.90
20658;DHT22;10488;50.846;4.078;2024-01-27T15:44:02;7.90;99.90